Time;durP1;ratioP1;P1;durP2;ratioP2;P2;SDS_P1;SDS_P2;PMS_P1;PMS_P2;Temp;Humidity;BMP_temperature;BMP_pressure;BME280_temperature;BME280_humidity;BME280_pressure;Samples;Min_cycle;Max_cycle;Signal;HPM_P1;HPM_P2
2022/03/04 00:01:32;;;;;;;18.27;7.82;;;5.20;98.80;;;;;;5028786;28;20057;-37
2022/03/04 00:03:58;;;;;;;15.70;7.45;;;5.20;98.70;;;;;;5024104;28;20422;-38
2022/03/04 00:06:24;;;;;;;18.60;8.18;;;5.10;98.80;;;;;;5021576;28;20030;-33
2022/03/04 00:08:50;;;;;;;14.90;7.00;;;5.10;98.90;;;;;;5024936;28;20466;-39
2022/03/04 00:11:16;;;;;;;15.75;7.35;;;5.10;99.00;;;;;;5019622;28;20043;-30
2022/03/04 00:13:41;;;;;;;17.58;8.18;;;5.10;99.00;;;;;;5025516;28;20108;-31
2022/03/04 00:16:07;;;;;;;21.92;9.13;;;5.10;99.00;;;;;;5024372;28;20478;-37
2022/03/04 00:18:32;;;;;;;18.48;8.00;;;5.10;99.10;;;;;;5024122;28;20459;-37
2022/03/04 00:20:58;;;;;;;20.70;7.72;;;5.00;99.20;;;;;;5015497;28;20121;-32
2022/03/04 00:23:24;;;;;;;19.50;7.72;;;5.00;99.30;;;;;;5018176;28;20129;-32
2022/03/04 00:25:49;;;;;;;18.58;7.45;;;5.00;99.40;;;;;;5020509;28;20120;-32
2022/03/04 00:28:15;;;;;;;18.77;6.97;;;5.00;99.40;;;;;;5023264;28;20018;-33
2022/03/04 00:30:40;;;;;;;22.30;8.63;;;4.90;99.40;;;;;;5029940;28;20021;-35
2022/03/04 00:33:06;;;;;;;18.08;7.80;;;4.90;99.50;;;;;;5031906;28;20139;-32
2022/03/04 00:35:32;;;;;;;17.80;7.55;;;4.90;99.70;;;;;;5013019;28;20289;-37
2022/03/04 00:37:57;;;;;;;19.63;8.48;;;4.80;99.70;;;;;;5019201;28;20498;-36
2022/03/04 00:40:23;;;;;;;20.90;8.98;;;4.70;99.90;;;;;;5027009;28;20054;-34
2022/03/04 00:42:49;;;;;;;17.85;8.00;;;4.70;99.90;;;;;;5026049;28;20029;-30
2022/03/04 00:45:14;;;;;;;17.38;7.93;;;4.60;99.90;;;;;;5028719;28;20482;-38
2022/03/04 00:47:40;;;;;;;26.02;8.43;;;4.60;99.90;;;;;;5027034;28;20364;-36
2022/03/04 00:50:06;;;;;;;19.73;8.27;;;4.60;99.90;;;;;;5024668;28;20026;-34
2022/03/04 00:52:34;;;;;;;16.40;7.32;;;4.60;99.90;;;;;;5023463;28;20026;-33
2022/03/04 00:54:59;;;;;;;20.07;9.40;;;4.60;99.90;;;;;;5028298;28;20107;-31
2022/03/04 00:57:25;;;;;;;16.70;8.02;;;4.60;99.90;;;;;;5036039;28;20547;-33
2022/03/04 00:59:50;;;;;;;15.68;7.40;;;4.60;99.90;;;;;;5033984;28;20095;-32
2022/03/04 01:02:16;;;;;;;18.27;7.57;;;4.50;99.90;;;;;;5032579;28;20033;-31
2022/03/04 01:04:42;;;;;;;20.65;8.82;;;4.40;99.90;;;;;;5020510;28;20025;-31
2022/03/04 01:07:07;;;;;;;15.18;7.53;;;4.50;99.90;;;;;;5034131;28;20111;-32
2022/03/04 01:09:33;;;;;;;18.25;7.88;;;4.40;99.90;;;;;;5029508;28;20052;-33
2022/03/04 01:11:58;;;;;;;19.60;7.28;;;4.30;99.90;;;;;;5025799;28;20025;-40
2022/03/04 01:14:24;;;;;;;18.77;7.53;;;4.30;99.90;;;;;;5020844;28;20028;-33
2022/03/04 01:16:50;;;;;;;20.65;9.05;;;4.20;99.90;;;;;;5017678;28;20025;-34
2022/03/04 01:19:15;;;;;;;19.45;8.75;;;4.30;99.90;;;;;;5024704;28;20032;-34
2022/03/04 01:21:41;;;;;;;22.65;8.00;;;4.20;99.90;;;;;;5035701;28;20076;-34
2022/03/04 01:24:07;;;;;;;17.70;8.30;;;4.20;99.90;;;;;;5027176;28;20030;-34
2022/03/04 01:26:33;;;;;;;19.25;7.90;;;4.10;99.90;;;;;;5016496;28;20479;-31
2022/03/04 01:28:59;;;;;;;20.70;8.93;;;4.00;99.90;;;;;;5021378;28;20478;-35
2022/03/04 01:31:24;;;;;;;21.50;8.73;;;3.90;99.90;;;;;;5033130;28;20037;-33
2022/03/04 01:33:50;;;;;;;19.73;8.43;;;4.00;99.90;;;;;;5028142;28;20142;-31
2022/03/04 01:36:16;;;;;;;18.17;7.47;;;4.00;99.90;;;;;;5036054;28;20028;-50
2022/03/04 01:38:42;;;;;;;17.65;7.78;;;4.00;99.90;;;;;;5031643;28;20474;-31
2022/03/04 01:41:08;;;;;;;20.25;8.25;;;4.00;99.90;;;;;;5022236;28;20083;-37
2022/03/04 01:43:35;;;;;;;16.15;7.57;;;4.00;99.90;;;;;;5025634;28;20573;-32
2022/03/04 01:46:17;;;;;;;20.48;9.05;;;3.90;99.90;;;;;;5033176;28;20469;-34
2022/03/04 01:48:45;;;;;;;18.98;7.72;;;3.90;99.90;;;;;;5029493;28;20175;-36
2022/03/04 01:51:11;;;;;;;17.98;7.88;;;3.80;99.90;;;;;;5025814;28;20025;-31
2022/03/04 01:53:39;;;;;;;21.00;8.88;;;3.70;99.90;;;;;;5015524;28;20030;-35
2022/03/04 01:56:04;;;;;;;20.00;8.82;;;3.60;99.90;;;;;;5022665;28;20029;-36
2022/03/04 01:58:30;;;;;;;18.55;8.18;;;3.70;99.90;;;;;;5028927;28;20063;-33
2022/03/04 02:00:56;;;;;;;29.48;9.23;;;3.70;99.90;;;;;;5033318;28;20053;-33
2022/03/04 02:03:23;;;;;;;24.33;8.98;;;3.60;99.90;;;;;;5033196;28;20514;-31
2022/03/04 02:05:49;;;;;;;17.57;7.90;;;3.60;99.90;;;;;;5031757;28;20072;-35
2022/03/04 02:08:15;;;;;;;21.35;7.80;;;3.60;99.90;;;;;;5019998;28;20297;-36
2022/03/04 02:10:40;;;;;;;22.88;9.55;;;3.60;99.90;;;;;;5031203;28;20036;-33
2022/03/04 02:13:06;;;;;;;20.05;8.10;;;3.60;99.90;;;;;;5019797;28;20137;-32
2022/03/04 02:15:31;;;;;;;20.27;8.63;;;3.60;99.90;;;;;;5033453;28;20124;-35
2022/03/04 02:17:57;;;;;;;16.85;7.57;;;3.60;99.90;;;;;;5032921;28;20033;-38
2022/03/04 02:20:22;;;;;;;23.40;9.40;;;3.60;99.90;;;;;;5019133;28;20030;-31
2022/03/04 02:22:50;;;;;;;14.55;7.38;;;3.50;99.90;;;;;;5018211;28;20021;-31
2022/03/04 02:25:16;;;;;;;18.43;8.30;;;3.50;99.90;;;;;;5032408;28;20514;-35
2022/03/04 02:27:41;;;;;;;20.15;8.35;;;3.40;99.90;;;;;;5029556;28;20025;-45
2022/03/04 02:30:07;;;;;;;19.25;8.63;;;3.50;99.90;;;;;;5016265;28;20030;-34
2022/03/04 02:32:33;;;;;;;22.77;8.48;;;3.50;99.90;;;;;;5029195;28;20077;-33
2022/03/04 02:34:59;;;;;;;22.75;8.52;;;3.50;99.90;;;;;;5034525;28;20136;-36
2022/03/04 02:37:24;;;;;;;21.35;9.02;;;3.50;99.90;;;;;;5028022;28;20026;-34
2022/03/04 02:39:51;;;;;;;18.58;8.27;;;3.40;99.90;;;;;;5024732;28;20487;-31
2022/03/04 02:42:16;;;;;;;25.30;9.07;;;3.40;99.90;;;;;;5033020;28;20028;-32
2022/03/04 02:44:42;;;;;;;17.33;7.70;;;3.40;99.90;;;;;;5033451;28;20412;-34
2022/03/04 02:47:08;;;;;;;25.17;8.90;;;3.30;99.90;;;;;;5033122;28;20021;-35
2022/03/04 02:49:33;;;;;;;18.45;8.75;;;3.20;99.90;;;;;;5033419;28;20056;-37
2022/03/04 02:51:59;;;;;;;19.38;8.52;;;3.10;99.90;;;;;;5033634;28;20119;-30
2022/03/04 02:54:24;;;;;;;22.98;9.27;;;3.10;99.90;;;;;;5034178;28;20017;-34
2022/03/04 02:56:50;;;;;;;19.27;8.73;;;3.10;99.90;;;;;;5033411;28;20030;-33
2022/03/04 02:59:16;;;;;;;22.48;8.77;;;3.00;99.90;;;;;;5025501;28;20033;-34
2022/03/04 03:01:41;;;;;;;23.67;9.60;;;3.00;99.90;;;;;;5027583;28;20088;-34
2022/03/04 03:04:07;;;;;;;18.95;8.82;;;3.00;99.90;;;;;;5014500;28;20124;-31
2022/03/04 03:06:32;;;;;;;24.75;9.45;;;3.00;99.90;;;;;;5027679;28;20038;-33
2022/03/04 03:08:58;;;;;;;24.23;8.43;;;3.00;99.90;;;;;;5019396;28;20053;-34
2022/03/04 03:11:23;;;;;;;17.98;8.23;;;2.90;99.90;;;;;;5032312;28;20040;-32
2022/03/04 03:13:49;;;;;;;16.75;7.72;;;2.80;99.90;;;;;;5033343;28;20053;-35
2022/03/04 03:16:15;;;;;;;22.00;9.63;;;2.80;99.90;;;;;;5021621;28;20037;-31
2022/03/04 03:18:41;;;;;;;23.00;9.27;;;3.00;99.90;;;;;;5015863;28;20026;-40
2022/03/04 03:21:06;;;;;;;21.63;8.98;;;3.00;99.90;;;;;;5032617;28;20037;-39
2022/03/04 03:23:32;;;;;;;23.65;9.75;;;2.90;99.90;;;;;;5032200;28;20033;-31
2022/03/04 03:25:58;;;;;;;18.73;8.20;;;2.90;99.90;;;;;;5025128;28;20044;-31
2022/03/04 03:28:23;;;;;;;20.02;8.60;;;2.90;99.90;;;;;;5030723;28;20061;-32
2022/03/04 03:30:49;;;;;;;16.10;8.18;;;2.90;99.90;;;;;;5017769;28;20025;-35
2022/03/04 03:33:15;;;;;;;26.27;9.15;;;2.90;99.90;;;;;;5015088;28;20029;-33
2022/03/04 03:35:41;;;;;;;21.15;8.50;;;2.90;99.90;;;;;;5021062;28;20108;-32
2022/03/04 03:38:07;;;;;;;26.30;10.13;;;2.90;99.90;;;;;;5019508;28;20030;-33
2022/03/04 03:40:32;;;;;;;21.95;9.07;;;2.80;99.90;;;;;;5033301;28;20025;-34
2022/03/04 03:42:58;;;;;;;22.75;8.98;;;2.80;99.90;;;;;;5032994;28;20143;-36
2022/03/04 03:45:23;;;;;;;21.05;9.15;;;2.80;99.90;;;;;;5028349;28;20032;-32
2022/03/04 03:47:49;;;;;;;22.75;9.40;;;2.70;99.90;;;;;;5017670;28;20069;-35
2022/03/04 03:50:15;;;;;;;17.88;8.25;;;2.70;99.90;;;;;;5031049;28;20370;-31
2022/03/04 03:52:40;;;;;;;22.73;8.70;;;2.70;99.90;;;;;;5026868;28;20030;-33
2022/03/04 03:55:08;;;;;;;19.40;7.68;;;2.70;99.90;;;;;;5017435;28;20470;-33
2022/03/04 03:57:34;;;;;;;20.98;8.07;;;2.60;99.90;;;;;;5031412;28;20478;-36
2022/03/04 03:59:59;;;;;;;25.42;9.63;;;2.70;99.90;;;;;;5016058;28;20026;-30
2022/03/04 04:02:26;;;;;;;24.10;9.23;;;2.70;99.90;;;;;;5019933;28;20024;-37
2022/03/04 04:04:51;;;;;;;24.10;9.65;;;2.70;99.90;;;;;;5030464;28;20025;-32
2022/03/04 04:07:17;;;;;;;31.05;10.10;;;2.60;99.90;;;;;;5031038;28;20045;-40
2022/03/04 04:09:43;;;;;;;21.60;8.57;;;2.60;99.90;;;;;;5018473;28;20033;-37
2022/03/04 04:12:09;;;;;;;22.58;7.97;;;2.60;99.90;;;;;;5023909;28;20029;-31
2022/03/04 04:14:34;;;;;;;26.83;9.50;;;2.60;99.90;;;;;;5015960;28;20497;-35
2022/03/04 04:17:00;;;;;;;18.55;8.00;;;2.50;99.90;;;;;;5021218;28;20097;-31
2022/03/04 04:19:26;;;;;;;24.35;8.70;;;2.50;99.90;;;;;;5022847;28;20378;-30
2022/03/04 04:21:52;;;;;;;21.88;8.25;;;2.50;99.90;;;;;;5032379;28;20025;-30
2022/03/04 04:24:18;;;;;;;22.98;8.13;;;2.50;99.90;;;;;;5032738;28;20052;-34
2022/03/04 04:26:44;;;;;;;25.00;9.55;;;2.50;99.90;;;;;;5029130;28;20031;-37
2022/03/04 04:29:11;;;;;;;19.27;7.85;;;2.50;99.90;;;;;;5021400;28;20026;-33
2022/03/04 04:31:37;;;;;;;25.33;8.88;;;2.50;99.90;;;;;;5014256;28;20143;-40
2022/03/04 04:34:03;;;;;;;22.17;8.80;;;2.40;99.90;;;;;;5012848;28;20046;-34
2022/03/04 04:36:29;;;;;;;17.60;7.85;;;2.40;99.90;;;;;;5028419;28;20123;-34
2022/03/04 04:38:54;;;;;;;15.07;7.38;;;2.40;99.90;;;;;;5025267;28;20033;-49
2022/03/04 04:41:21;;;;;;;17.33;7.50;;;2.30;99.90;;;;;;5015528;28;20057;-34
2022/03/04 04:43:46;;;;;;;27.02;8.30;;;2.30;99.90;;;;;;5021268;28;20486;-31
2022/03/04 04:46:12;;;;;;;21.85;8.57;;;2.40;99.90;;;;;;5014055;28;20045;-31
2022/03/04 04:48:38;;;;;;;19.13;8.35;;;2.30;99.90;;;;;;5025662;28;20029;-33
2022/03/04 04:51:05;;;;;;;19.90;8.98;;;2.20;99.90;;;;;;5023584;28;20026;-32
2022/03/04 04:53:31;;;;;;;19.75;9.20;;;2.20;99.90;;;;;;5031080;28;20538;-33
2022/03/04 04:55:57;;;;;;;25.98;8.68;;;2.30;99.90;;;;;;5031774;28;20109;-36
2022/03/04 04:58:23;;;;;;;20.17;8.98;;;2.40;99.90;;;;;;5027048;28;20033;-44
2022/03/04 05:00:53;;;;;;;19.70;9.10;;;2.30;99.90;;;;;;5023002;28;20026;-36
2022/03/04 05:03:23;;;;;;;20.58;8.88;;;2.30;99.90;;;;;;5017750;28;20029;-33
2022/03/04 05:05:49;;;;;;;26.20;9.20;;;2.40;99.90;;;;;;5016685;28;20041;-36
2022/03/04 05:08:16;;;;;;;19.17;8.10;;;2.40;99.90;;;;;;5018973;28;20038;-34
2022/03/04 05:10:42;;;;;;;23.63;8.77;;;2.40;99.90;;;;;;5031992;28;20037;-34
2022/03/04 05:13:08;;;;;;;22.10;9.20;;;2.40;99.90;;;;;;5020544;28;20026;-39
2022/03/04 05:15:33;;;;;;;25.55;8.65;;;2.40;99.90;;;;;;5014706;28;20034;-32
2022/03/04 05:17:59;;;;;;;24.92;9.15;;;2.40;99.90;;;;;;5029624;28;20033;-39
2022/03/04 05:20:25;;;;;;;25.45;9.38;;;2.30;99.90;;;;;;5026974;28;20052;-33
2022/03/04 05:22:50;;;;;;;19.08;8.25;;;2.30;99.90;;;;;;5014983;28;20029;-31
2022/03/04 05:25:16;;;;;;;24.98;9.88;;;2.20;99.90;;;;;;5012365;28;20029;-30
2022/03/04 05:27:41;;;;;;;17.50;8.15;;;2.30;99.90;;;;;;5027009;28;20421;-34
2022/03/04 05:30:07;;;;;;;18.67;7.88;;;2.30;99.90;;;;;;5020770;28;20411;-32
2022/03/04 05:32:33;;;;;;;18.23;7.55;;;2.20;99.90;;;;;;5023104;28;20029;-33
2022/03/04 05:34:59;;;;;;;21.75;8.77;;;2.20;99.90;;;;;;5031663;28;20037;-31
2022/03/04 05:37:24;;;;;;;25.73;8.90;;;2.20;99.90;;;;;;5028849;28;20577;-33
2022/03/04 05:39:54;;;;;;;24.02;9.07;;;2.10;99.90;;;;;;5031545;28;20052;-31
2022/03/04 05:42:20;;;;;;;23.25;8.77;;;2.10;99.90;;;;;;5030984;28;20080;-31
2022/03/04 05:44:46;;;;;;;19.55;8.65;;;2.10;99.90;;;;;;5022750;28;20108;-34
2022/03/04 05:47:12;;;;;;;22.83;10.90;;;2.10;99.90;;;;;;5030969;28;20117;-35
2022/03/04 05:49:38;;;;;;;24.75;9.80;;;2.10;99.90;;;;;;5020466;28;20049;-34
2022/03/04 05:52:04;;;;;;;22.55;8.38;;;2.10;99.90;;;;;;5024976;28;20036;-33
2022/03/04 05:54:30;;;;;;;20.02;8.30;;;2.10;99.90;;;;;;5022185;28;20107;-32
2022/03/04 05:56:56;;;;;;;18.00;8.38;;;2.10;99.90;;;;;;5027161;28;20049;-34
2022/03/04 05:59:21;;;;;;;22.23;8.85;;;2.10;99.90;;;;;;5033777;28;20025;-33
2022/03/04 06:01:47;;;;;;;18.40;8.05;;;2.00;99.90;;;;;;5020488;28;20033;-33
2022/03/04 06:04:13;;;;;;;23.70;9.02;;;2.00;99.90;;;;;;5032661;28;20406;-31
2022/03/04 06:06:38;;;;;;;23.48;9.80;;;1.90;99.90;;;;;;5029118;28;20030;-35
2022/03/04 06:09:04;;;;;;;29.67;9.43;;;1.90;99.90;;;;;;5016133;28;20041;-36
2022/03/04 06:11:29;;;;;;;22.40;9.63;;;1.90;99.90;;;;;;5015446;28;20051;-45
2022/03/04 06:13:55;;;;;;;27.20;9.73;;;1.90;99.90;;;;;;5028201;28;20033;-33
2022/03/04 06:16:21;;;;;;;22.40;8.73;;;1.80;99.90;;;;;;5028979;28;20029;-31
2022/03/04 06:18:47;;;;;;;17.80;8.60;;;1.80;99.90;;;;;;5033464;28;20029;-36
2022/03/04 06:21:12;;;;;;;22.35;9.13;;;1.90;99.90;;;;;;5034459;28;20056;-35
2022/03/04 06:23:39;;;;;;;22.02;9.18;;;1.90;99.90;;;;;;5025747;28;20075;-33
2022/03/04 06:26:04;;;;;;;22.70;8.40;;;1.90;99.90;;;;;;5034364;28;20478;-31
2022/03/04 06:28:30;;;;;;;20.52;9.15;;;1.90;99.90;;;;;;5033532;28;20037;-36
2022/03/04 06:30:56;;;;;;;25.25;8.60;;;1.80;99.90;;;;;;5026692;28;20025;-31
2022/03/04 06:33:30;;;;;;;26.00;9.88;;;1.90;99.90;;;;;;5029874;28;20196;-31
2022/03/04 06:36:03;;;;;;;21.20;9.60;;;1.80;99.90;;;;;;5033580;28;20029;-34
2022/03/04 06:38:29;;;;;;;24.23;10.68;;;1.80;99.90;;;;;;5014736;28;20083;-32
2022/03/04 06:40:55;;;;;;;21.08;8.23;;;1.90;99.90;;;;;;5014686;28;20542;-35
2022/03/04 06:43:20;;;;;;;22.67;10.43;;;1.90;99.90;;;;;;5024522;28;20032;-40
2022/03/04 06:45:47;;;;;;;22.67;9.27;;;1.90;99.90;;;;;;5019647;28;20026;-31
2022/03/04 06:48:15;;;;;;;23.85;9.30;;;1.90;99.90;;;;;;5021768;28;20036;-30
2022/03/04 06:50:41;;;;;;;15.63;6.85;;;1.90;99.90;;;;;;5022666;28;20029;-30
2022/03/04 06:53:07;;;;;;;23.02;9.13;;;1.90;99.90;;;;;;5027108;28;20037;-33
2022/03/04 06:55:33;;;;;;;21.20;9.52;;;2.00;99.90;;;;;;5032179;28;20034;-32
2022/03/04 06:57:59;;;;;;;24.20;9.48;;;2.10;99.90;;;;;;5025140;28;20029;-31
2022/03/04 07:00:26;;;;;;;29.17;10.50;;;2.10;99.90;;;;;;5025597;28;20031;-38
2022/03/04 07:02:52;;;;;;;26.85;9.25;;;2.10;99.90;;;;;;5023090;28;20390;-33
2022/03/04 07:05:21;;;;;;;28.38;9.13;;;2.20;99.90;;;;;;5019936;28;20055;-34
2022/03/04 07:07:51;;;;;;;21.20;8.90;;;2.10;99.90;;;;;;5017248;28;20048;-30
2022/03/04 07:10:17;;;;;;;18.88;8.95;;;2.20;99.90;;;;;;5029960;28;20084;-38
2022/03/04 07:12:43;;;;;;;25.48;9.60;;;2.30;99.90;;;;;;5021467;28;20022;-34
2022/03/04 07:15:09;;;;;;;21.52;9.00;;;2.40;99.90;;;;;;5020859;28;20076;-34
2022/03/04 07:17:35;;;;;;;21.10;9.10;;;2.40;99.90;;;;;;5024171;28;20029;-35
2022/03/04 07:20:01;;;;;;;20.27;8.93;;;2.50;99.90;;;;;;5028892;28;20517;-30
2022/03/04 07:22:27;;;;;;;22.77;9.15;;;2.50;99.90;;;;;;5015083;28;20029;-34
2022/03/04 07:24:53;;;;;;;22.23;9.23;;;2.60;99.90;;;;;;5013807;28;20034;-37
2022/03/04 07:27:18;;;;;;;19.00;9.13;;;2.60;99.90;;;;;;5026294;28;20021;-32
2022/03/04 07:29:44;;;;;;;22.50;9.52;;;2.70;99.90;;;;;;5029713;28;20025;-34
2022/03/04 07:32:10;;;;;;;28.92;10.15;;;2.70;99.90;;;;;;5018344;28;20109;-31
2022/03/04 07:34:35;;;;;;;27.02;9.43;;;2.80;99.90;;;;;;5014393;28;20033;-36
2022/03/04 07:37:01;;;;;;;19.42;8.32;;;2.90;99.90;;;;;;5018538;28;20040;-35
2022/03/04 07:39:27;;;;;;;20.60;8.15;;;3.00;99.90;;;;;;5033499;28;20037;-32
2022/03/04 07:41:52;;;;;;;23.27;8.65;;;3.00;99.90;;;;;;5022256;28;20092;-40
2022/03/04 07:44:18;;;;;;;16.48;7.93;;;3.10;99.90;;;;;;5013605;28;20084;-29
2022/03/04 07:46:44;;;;;;;21.73;10.05;;;3.20;99.90;;;;;;5017232;28;20021;-32
2022/03/04 07:49:10;;;;;;;21.50;8.68;;;3.30;99.90;;;;;;5017992;28;20026;-33
2022/03/04 07:51:36;;;;;;;18.42;8.20;;;3.40;99.90;;;;;;5014899;28;20072;-31
2022/03/04 07:54:02;;;;;;;25.02;9.05;;;3.50;99.90;;;;;;5024462;28;20049;-33
2022/03/04 07:56:28;;;;;;;18.13;7.60;;;3.60;99.90;;;;;;5015538;28;20112;-34
2022/03/04 07:58:53;;;;;;;18.98;8.57;;;3.70;99.90;;;;;;5030955;28;20438;-37
2022/03/04 08:01:19;;;;;;;22.13;8.73;;;3.80;99.90;;;;;;5019789;28;20038;-33
2022/03/04 08:03:46;;;;;;;21.00;9.23;;;3.90;99.90;;;;;;5017914;28;20029;-34
2022/03/04 08:06:12;;;;;;;16.20;7.68;;;4.00;99.90;;;;;;5014388;28;20025;-33
2022/03/04 08:08:38;;;;;;;23.40;8.10;;;4.10;99.90;;;;;;5016057;28;20045;-34
2022/03/04 08:11:04;;;;;;;20.10;8.05;;;4.20;99.90;;;;;;5028254;28;20104;-34
2022/03/04 08:13:29;;;;;;;18.58;8.80;;;4.30;99.90;;;;;;5026737;28;20034;-35
2022/03/04 08:15:55;;;;;;;19.88;9.73;;;4.40;99.90;;;;;;5030820;28;20025;-32
2022/03/04 08:18:20;;;;;;;22.13;9.40;;;4.40;99.90;;;;;;5027362;28;20482;-34
2022/03/04 08:20:46;;;;;;;19.00;8.75;;;4.60;99.90;;;;;;5031769;28;20034;-34
2022/03/04 08:23:12;;;;;;;22.27;8.45;;;4.60;99.90;;;;;;5032094;28;20060;-34
2022/03/04 08:25:41;;;;;;;18.67;7.95;;;4.60;99.90;;;;;;5032187;28;20110;-37
2022/03/04 08:28:07;;;;;;;19.70;8.43;;;4.70;99.90;;;;;;5032354;28;20105;-32
2022/03/04 08:30:32;;;;;;;19.65;8.90;;;4.80;99.90;;;;;;5029865;28;20237;-34
2022/03/04 08:32:58;;;;;;;23.58;8.43;;;4.90;99.90;;;;;;5032025;28;20022;-44
2022/03/04 08:35:25;;;;;;;16.45;7.75;;;5.00;99.90;;;;;;5032238;28;20040;-33
2022/03/04 08:37:52;;;;;;;18.38;8.77;;;5.20;99.90;;;;;;5032606;28;20025;-31
2022/03/04 08:40:18;;;;;;;26.05;9.77;;;5.30;99.90;;;;;;5015048;28;20124;-34
2022/03/04 08:42:43;;;;;;;24.83;8.52;;;5.40;99.90;;;;;;5031726;28;20088;-34
2022/03/04 08:45:10;;;;;;;15.90;7.93;;;5.50;99.90;;;;;;5032212;28;20087;-31
2022/03/04 08:47:36;;;;;;;19.73;8.55;;;5.50;99.90;;;;;;5030344;28;20065;-34
2022/03/04 08:50:03;;;;;;;19.27;7.55;;;5.50;99.90;;;;;;5016660;28;20466;-31
2022/03/04 08:52:28;;;;;;;18.38;7.60;;;5.60;99.90;;;;;;5029833;28;20021;-34
2022/03/04 08:54:54;;;;;;;17.00;8.15;;;5.70;99.90;;;;;;5014026;28;20545;-32
2022/03/04 08:57:20;;;;;;;24.73;9.38;;;5.70;99.90;;;;;;5012590;28;20022;-36
2022/03/04 08:59:45;;;;;;;20.33;8.00;;;5.70;99.90;;;;;;5012716;28;20030;-31
2022/03/04 09:02:11;;;;;;;19.63;8.30;;;5.80;99.90;;;;;;5026723;28;20014;-33
2022/03/04 09:04:36;;;;;;;20.23;8.55;;;5.90;99.90;;;;;;5024797;28;20030;-33
2022/03/04 09:07:04;;;;;;;18.65;8.07;;;6.00;99.90;;;;;;5032099;28;20049;-35
2022/03/04 09:09:29;;;;;;;16.10;7.32;;;6.10;99.90;;;;;;5022577;28;20495;-31
2022/03/04 09:11:55;;;;;;;18.83;8.40;;;6.20;99.90;;;;;;5025299;28;20116;-33
2022/03/04 09:14:23;;;;;;;21.92;8.10;;;6.40;99.90;;;;;;5021281;28;20026;-30
2022/03/04 09:16:49;;;;;;;17.85;8.60;;;6.50;99.90;;;;;;5028968;28;20041;-39
2022/03/04 09:19:15;;;;;;;17.50;8.35;;;6.50;99.90;;;;;;5029516;28;20025;-40
2022/03/04 09:21:41;;;;;;;22.58;8.95;;;6.60;99.90;;;;;;5018880;28;20034;-30
2022/03/04 09:24:07;;;;;;;23.23;8.43;;;6.60;99.90;;;;;;5024760;28;20393;-33
2022/03/04 09:26:33;;;;;;;21.15;8.65;;;6.70;99.90;;;;;;5025186;28;20029;-33
2022/03/04 09:28:59;;;;;;;18.52;8.20;;;6.70;99.90;;;;;;5027806;28;20028;-35
2022/03/04 09:31:24;;;;;;;22.38;9.57;;;6.80;99.90;;;;;;5019012;28;20026;-33
2022/03/04 09:33:50;;;;;;;23.55;8.30;;;6.90;99.90;;;;;;5026034;28;20029;-42
2022/03/04 09:36:16;;;;;;;19.63;8.27;;;7.00;99.90;;;;;;5029090;28;20033;-38
2022/03/04 09:38:42;;;;;;;23.05;8.50;;;7.10;99.90;;;;;;5027219;28;20386;-34
2022/03/04 09:41:08;;;;;;;19.23;8.60;;;7.20;99.90;;;;;;5028256;28;20076;-33
2022/03/04 09:43:35;;;;;;;22.83;8.18;;;7.30;99.90;;;;;;5034973;28;20459;-35
2022/03/04 09:46:01;;;;;;;17.50;8.55;;;7.30;99.90;;;;;;5034676;28;20048;-33
2022/03/04 09:48:27;;;;;;;20.15;8.80;;;7.40;99.90;;;;;;5030533;28;20026;-35
2022/03/04 09:50:52;;;;;;;16.35;7.63;;;7.60;99.90;;;;;;5025407;28;20018;-38
2022/03/04 09:53:18;;;;;;;14.00;7.78;;;7.80;99.90;;;;;;5026992;28;20030;-33
2022/03/04 09:55:45;;;;;;;24.80;9.32;;;8.00;99.80;;;;;;5014075;28;20026;-37
2022/03/04 09:58:19;;;;;;;16.77;8.23;;;8.10;99.70;;;;;;5015329;28;20095;-37
2022/03/04 10:00:46;;;;;;;18.23;8.25;;;8.20;98.90;;;;;;5015730;28;20029;-33
2022/03/04 10:03:32;;;;;;;20.17;8.43;;;8.30;98.90;;;;;;5015586;28;20383;-34
2022/03/04 10:06:00;;;;;;;16.10;7.60;;;8.40;99.10;;;;;;5008090;28;20046;-31
2022/03/04 10:08:25;;;;;;;17.23;8.63;;;8.50;97.50;;;;;;5015158;28;20054;-35
2022/03/04 10:10:56;;;;;;;19.85;7.45;;;8.50;97.60;;;;;;5015201;28;20153;-38
2022/03/04 10:13:45;;;;;;;18.58;8.18;;;8.60;97.60;;;;;;5014978;28;20030;-44
2022/03/04 10:16:30;;;;;;;15.27;7.78;;;8.60;98.20;;;;;;5021130;28;20514;-37
2022/03/04 10:19:08;;;;;;;16.80;7.78;;;8.70;98.40;;;;;;5035054;28;20387;-30
2022/03/04 10:21:52;;;;;;;18.42;8.00;;;8.80;97.30;;;;;;5034816;28;20091;-31
2022/03/04 10:24:22;;;;;;;20.02;8.10;;;8.90;96.90;;;;;;5034973;28;20021;-37
2022/03/04 10:26:58;;;;;;;19.08;8.50;;;8.90;96.90;;;;;;5029135;28;20092;-37
2022/03/04 10:29:25;;;;;;;13.32;7.25;;;8.90;96.90;;;;;;5014908;28;20419;-30
2022/03/04 10:32:09;;;;;;;18.53;8.30;;;9.00;96.70;;;;;;5015147;28;20018;-33
2022/03/04 10:35:02;;;;;;;16.55;7.88;;;9.10;96.50;;;;;;5015026;28;20038;-39
2022/03/04 10:37:51;;;;;;;16.25;7.78;;;9.10;96.20;;;;;;5014755;28;20034;-39
2022/03/04 10:40:25;;;;;;;17.83;7.53;;;9.20;96.30;;;;;;5013380;28;20042;-40
2022/03/04 10:43:02;;;;;;;18.25;8.02;;;9.20;96.30;;;;;;5014974;28;20046;-40
2022/03/04 10:45:31;;;;;;;17.60;7.68;;;9.10;96.70;;;;;;5014935;28;20486;-40
2022/03/04 10:48:18;;;;;;;21.27;9.70;;;9.30;97.20;;;;;;5014593;28;20026;-40
2022/03/04 10:50:45;;;;;;;16.42;8.50;;;9.40;97.30;;;;;;5014417;28;20037;-39
2022/03/04 10:53:18;;;;;;;20.65;8.98;;;9.50;97.30;;;;;;5014566;28;20030;-45
2022/03/04 10:55:50;;;;;;;18.40;8.57;;;9.60;96.90;;;;;;5014513;28;20156;-41
2022/03/04 10:58:22;;;;;;;14.80;7.68;;;9.70;97.00;;;;;;5013335;28;20070;-41
2022/03/04 11:00:49;;;;;;;18.52;8.48;;;9.80;97.50;;;;;;5014417;28;20568;-41
2022/03/04 11:03:36;;;;;;;20.17;8.25;;;9.90;96.30;;;;;;5014265;28;20105;-40
2022/03/04 11:06:07;;;;;;;17.60;8.75;;;9.90;96.40;;;;;;5013922;28;20037;-38
2022/03/04 11:08:34;;;;;;;20.13;8.77;;;9.90;97.10;;;;;;5012788;28;20042;-41
2022/03/04 11:11:02;;;;;;;16.50;7.68;;;10.00;96.40;;;;;;5014455;28;20495;-41
2022/03/04 11:13:29;;;;;;;18.10;9.00;;;10.20;95.90;;;;;;5014428;28;20510;-41
2022/03/04 11:15:56;;;;;;;15.50;8.02;;;10.20;95.80;;;;;;5019532;28;20071;-46
2022/03/04 11:18:22;;;;;;;18.75;9.40;;;10.20;95.90;;;;;;5034054;28;20029;-44
2022/03/04 11:20:53;;;;;;;19.13;9.00;;;10.30;95.90;;;;;;5033804;28;20478;-40
2022/03/04 11:23:21;;;;;;;20.88;7.97;;;10.30;96.50;;;;;;5033772;28;20088;-39
2022/03/04 11:25:59;;;;;;;16.25;8.88;;;10.30;97.00;;;;;;5033551;28;20045;-40
2022/03/04 11:28:34;;;;;;;18.40;9.60;;;10.40;96.10;;;;;;5032753;28;20445;-40
2022/03/04 11:31:06;;;;;;;20.33;8.32;;;10.50;96.30;;;;;;5033519;28;20037;-40
2022/03/04 11:33:52;;;;;;;21.40;8.73;;;10.60;96.50;;;;;;5033848;28;20036;-40
2022/03/04 11:36:25;;;;;;;16.60;8.48;;;10.80;96.50;;;;;;5033138;28;20040;-47
2022/03/04 11:38:51;;;;;;;20.08;8.65;;;11.00;96.00;;;;;;5033358;28;20072;-38
2022/03/04 11:41:24;;;;;;;22.15;10.07;;;11.10;96.10;;;;;;5033532;28;20398;-38
2022/03/04 11:43:53;;;;;;;19.38;9.40;;;11.20;95.70;;;;;;5033394;28;20409;-47
2022/03/04 11:46:23;;;;;;;19.05;8.77;;;11.30;94.80;;;;;;5033169;28;20033;-48
2022/03/04 11:49:25;;;;;;;17.15;8.40;;;11.30;95.00;;;;;;5033086;28;20094;-40
2022/03/04 11:52:10;;;;;;;21.67;9.18;;;11.20;95.30;;;;;;5033146;28;20589;-39
2022/03/04 11:54:36;;;;;;;20.48;9.55;;;11.40;95.00;;;;;;5026976;28;20125;-40
2022/03/04 11:57:15;;;;;;;19.98;8.93;;;11.50;94.30;;;;;;5019618;28;20458;-39
2022/03/04 11:59:57;;;;;;;19.80;8.85;;;11.40;93.90;;;;;;5030790;28;20393;-38
2022/03/04 12:02:29;;;;;;;17.35;8.82;;;11.40;94.60;;;;;;5023684;28;20030;-39
2022/03/04 12:05:19;;;;;;;18.00;8.80;;;11.30;94.60;;;;;;5025169;28;20036;-40
2022/03/04 12:07:56;;;;;;;19.48;9.65;;;11.30;94.50;;;;;;5028012;28;20045;-40
2022/03/04 12:10:25;;;;;;;18.55;9.35;;;11.40;94.70;;;;;;5019009;28;20443;-40
2022/03/04 12:13:13;;;;;;;18.17;8.55;;;11.40;94.50;;;;;;5013095;28;20038;-38
2022/03/04 12:15:39;;;;;;;;;;;11.50;94.20;;;;;;5016247;28;20025;-39
2022/03/04 12:18:27;;;;;;;15.77;8.10;;;11.50;93.70;;;;;;5027538;28;19935;-40
2022/03/04 12:20:58;;;;;;;19.10;8.20;;;11.60;94.80;;;;;;5013245;28;20044;-40
2022/03/04 12:23:38;;;;;;;17.55;7.75;;;11.80;95.20;;;;;;5013274;28;20026;-40
2022/03/04 12:26:04;;;;;;;18.40;8.23;;;12.00;93.70;;;;;;5014522;28;20406;-41
2022/03/04 12:29:03;;;;;;;20.10;8.13;;;11.90;93.20;;;;;;5029437;28;20042;-39
2022/03/04 12:31:33;;;;;;;13.70;8.27;;;11.90;92.80;;;;;;5027769;28;20033;-40
2022/03/04 12:33:59;;;;;;;14.80;7.72;;;11.90;92.90;;;;;;5029026;28;20539;-39
2022/03/04 12:36:28;;;;;;;18.42;8.20;;;11.80;93.00;;;;;;5012790;28;20105;-39
2022/03/04 12:38:59;;;;;;;19.20;9.23;;;12.00;92.90;;;;;;5012670;28;20034;-42
2022/03/04 12:41:31;;;;;;;15.63;7.63;;;12.00;93.50;;;;;;5013083;28;20026;-37
2022/03/04 12:43:58;;;;;;;19.45;8.70;;;12.20;92.80;;;;;;5021561;28;20156;-40
2022/03/04 12:46:26;;;;;;;13.57;7.25;;;12.30;91.70;;;;;;5027690;28;20541;-40
2022/03/04 12:48:53;;;;;;;11.23;7.13;;;12.30;91.60;;;;;;5020906;28;20137;-37